sensor_id;sensor_type;location;lat;lon;timestamp;pressure;altitude;pressure_sealevel;temperature;humidity
76496;BME280;65329;52.544;4.662;2023-05-20T00:02:08;-18597.69;;;-139.74;0.00
76496;BME280;65329;52.544;4.662;2023-05-20T00:04:35;-18597.69;;;-139.74;0.00
76496;BME280;65329;52.544;4.662;2023-05-20T00:07:02;-18597.69;;;-139.74;0.00
76496;BME280;65329;52.544;4.662;2023-05-20T00:09:29;-18597.69;;;-139.74;0.00
76496;BME280;65329;52.544;4.662;2023-05-20T00:11:56;-18597.69;;;-139.74;0.00
76496;BME280;65329;52.544;4.662;2023-05-20T00:14:23;-18597.69;;;-139.74;0.00
76496;BME280;65329;52.544;4.662;2023-05-20T00:16:50;-18597.69;;;-139.74;0.00
76496;BME280;65329;52.544;4.662;2023-05-20T00:19:17;-18597.69;;;-139.74;0.00
76496;BME280;65329;52.544;4.662;2023-05-20T00:21:44;-18597.69;;;-139.74;0.00
76496;BME280;65329;52.544;4.662;2023-05-20T00:24:11;-18597.69;;;-139.74;0.00
76496;BME280;65329;52.544;4.662;2023-05-20T00:26:38;-18597.69;;;-139.74;0.00
76496;BME280;65329;52.544;4.662;2023-05-20T00:29:04;-18597.69;;;-139.74;0.00
76496;BME280;65329;52.544;4.662;2023-05-20T00:31:31;-18597.69;;;-139.74;0.00
76496;BME280;65329;52.544;4.662;2023-05-20T00:33:58;-18597.69;;;-139.74;0.00
76496;BME280;65329;52.544;4.662;2023-05-20T00:36:25;-18597.69;;;-139.74;0.00
76496;BME280;65329;52.544;4.662;2023-05-20T00:38:53;-18597.69;;;-139.74;0.00
76496;BME280;65329;52.544;4.662;2023-05-20T00:41:20;-18597.69;;;-139.74;0.00
76496;BME280;65329;52.544;4.662;2023-05-20T00:43:47;-18597.69;;;-139.74;0.00
76496;BME280;65329;52.544;4.662;2023-05-20T00:46:14;-18597.69;;;-139.74;0.00
76496;BME280;65329;52.544;4.662;2023-05-20T00:48:42;-18597.69;;;-139.74;0.00
76496;BME280;65329;52.544;4.662;2023-05-20T00:51:11;-18597.69;;;-139.74;0.00
76496;BME280;65329;52.544;4.662;2023-05-20T00:53:39;-18597.69;;;-139.74;0.00
76496;BME280;65329;52.544;4.662;2023-05-20T00:56:07;-18597.69;;;-139.74;0.00
76496;BME280;65329;52.544;4.662;2023-05-20T00:58:36;-18597.69;;;-139.74;0.00
76496;BME280;65329;52.544;4.662;2023-05-20T01:01:04;-18597.69;;;-139.74;0.00
76496;BME280;65329;52.544;4.662;2023-05-20T01:03:31;-18597.69;;;-139.74;0.00
76496;BME280;65329;52.544;4.662;2023-05-20T01:05:59;-18597.69;;;-139.74;0.00
76496;BME280;65329;52.544;4.662;2023-05-20T01:08:26;-18597.69;;;-139.74;0.00
76496;BME280;65329;52.544;4.662;2023-05-20T01:11:07;-18597.69;;;-139.74;0.00
76496;BME280;65329;52.544;4.662;2023-05-20T01:13:40;-18597.69;;;-139.74;0.00
76496;BME280;65329;52.544;4.662;2023-05-20T01:16:09;-18597.69;;;-139.74;0.00
76496;BME280;65329;52.544;4.662;2023-05-20T01:18:38;-18597.69;;;-139.74;0.00
76496;BME280;65329;52.544;4.662;2023-05-20T01:21:06;-18597.69;;;-139.74;0.00
76496;BME280;65329;52.544;4.662;2023-05-20T01:23:40;-18597.69;;;-139.74;0.00
76496;BME280;65329;52.544;4.662;2023-05-20T01:26:08;-18597.69;;;-139.74;0.00
76496;BME280;65329;52.544;4.662;2023-05-20T01:28:40;-18597.69;;;-139.74;0.00
76496;BME280;65329;52.544;4.662;2023-05-20T01:31:26;-18597.69;;;-139.74;0.00
76496;BME280;65329;52.544;4.662;2023-05-20T01:33:57;-18597.69;;;-139.74;0.00
76496;BME280;65329;52.544;4.662;2023-05-20T01:36:25;-18597.69;;;-139.74;0.00
76496;BME280;65329;52.544;4.662;2023-05-20T01:38:53;-18597.69;;;-139.74;0.00
76496;BME280;65329;52.544;4.662;2023-05-20T01:41:22;-18597.69;;;-139.74;0.00
76496;BME280;65329;52.544;4.662;2023-05-20T01:43:53;-18597.69;;;-139.74;0.00
76496;BME280;65329;52.544;4.662;2023-05-20T01:46:20;-18597.69;;;-139.74;0.00
76496;BME280;65329;52.544;4.662;2023-05-20T01:48:47;-18597.69;;;-139.74;0.00
76496;BME280;65329;52.544;4.662;2023-05-20T01:51:14;-18597.69;;;-139.74;0.00
76496;BME280;65329;52.544;4.662;2023-05-20T01:53:42;-18597.69;;;-139.74;0.00
76496;BME280;65329;52.544;4.662;2023-05-20T01:56:09;-18597.69;;;-139.74;0.00
76496;BME280;65329;52.544;4.662;2023-05-20T01:58:36;-18597.69;;;-139.74;0.00
76496;BME280;65329;52.544;4.662;2023-05-20T02:01:06;-18597.69;;;-139.74;0.00
76496;BME280;65329;52.544;4.662;2023-05-20T02:03:33;-18597.69;;;-139.74;0.00
76496;BME280;65329;52.544;4.662;2023-05-20T02:06:00;-18597.69;;;-139.74;0.00
76496;BME280;65329;52.544;4.662;2023-05-20T02:08:27;-18597.69;;;-139.74;0.00
76496;BME280;65329;52.544;4.662;2023-05-20T02:10:54;-18597.69;;;-139.74;0.00
76496;BME280;65329;52.544;4.662;2023-05-20T02:13:21;-18597.69;;;-139.74;0.00
76496;BME280;65329;52.544;4.662;2023-05-20T02:15:49;-18597.69;;;-139.74;0.00
76496;BME280;65329;52.544;4.662;2023-05-20T02:18:16;-18597.69;;;-139.74;0.00
76496;BME280;65329;52.544;4.662;2023-05-20T02:20:44;-18597.69;;;-139.74;0.00
76496;BME280;65329;52.544;4.662;2023-05-20T02:23:11;-18597.69;;;-139.74;0.00
76496;BME280;65329;52.544;4.662;2023-05-20T02:25:39;-18597.69;;;-139.74;0.00
76496;BME280;65329;52.544;4.662;2023-05-20T02:28:08;-18597.69;;;-139.74;0.00
76496;BME280;65329;52.544;4.662;2023-05-20T02:30:37;-18597.69;;;-139.74;0.00
76496;BME280;65329;52.544;4.662;2023-05-20T02:33:04;-18597.69;;;-139.74;0.00
76496;BME280;65329;52.544;4.662;2023-05-20T02:35:32;-18597.69;;;-139.74;0.00
76496;BME280;65329;52.544;4.662;2023-05-20T02:38:00;-18597.69;;;-139.74;0.00
76496;BME280;65329;52.544;4.662;2023-05-20T02:40:27;-18597.69;;;-139.74;0.00
76496;BME280;65329;52.544;4.662;2023-05-20T02:42:54;-18597.69;;;-139.74;0.00
76496;BME280;65329;52.544;4.662;2023-05-20T02:45:21;-18597.69;;;-139.74;0.00
76496;BME280;65329;52.544;4.662;2023-05-20T02:47:47;-18597.69;;;-139.74;0.00
76496;BME280;65329;52.544;4.662;2023-05-20T02:50:15;-18597.69;;;-139.74;0.00
76496;BME280;65329;52.544;4.662;2023-05-20T02:52:42;-18597.69;;;-139.74;0.00
76496;BME280;65329;52.544;4.662;2023-05-20T02:55:09;-18597.69;;;-139.74;0.00
76496;BME280;65329;52.544;4.662;2023-05-20T02:57:36;-18597.69;;;-139.74;0.00
76496;BME280;65329;52.544;4.662;2023-05-20T03:00:09;-18597.69;;;-139.74;0.00
76496;BME280;65329;52.544;4.662;2023-05-20T03:02:36;-18597.69;;;-139.74;0.00
76496;BME280;65329;52.544;4.662;2023-05-20T03:05:04;-18597.69;;;-139.74;0.00
76496;BME280;65329;52.544;4.662;2023-05-20T03:07:34;-18597.69;;;-139.74;0.00
76496;BME280;65329;52.544;4.662;2023-05-20T03:10:06;-18597.69;;;-139.74;0.00
76496;BME280;65329;52.544;4.662;2023-05-20T03:12:33;-18597.69;;;-139.74;0.00
76496;BME280;65329;52.544;4.662;2023-05-20T03:15:00;-18597.69;;;-139.74;0.00
76496;BME280;65329;52.544;4.662;2023-05-20T03:17:27;-18597.69;;;-139.74;0.00
76496;BME280;65329;52.544;4.662;2023-05-20T03:19:55;-18597.69;;;-139.74;0.00
76496;BME280;65329;52.544;4.662;2023-05-20T03:22:23;-18597.69;;;-139.74;0.00
76496;BME280;65329;52.544;4.662;2023-05-20T03:24:50;-18597.69;;;-139.74;0.00
76496;BME280;65329;52.544;4.662;2023-05-20T03:27:18;-18597.69;;;-139.74;0.00
76496;BME280;65329;52.544;4.662;2023-05-20T03:29:46;-18597.69;;;-139.74;0.00
76496;BME280;65329;52.544;4.662;2023-05-20T03:32:14;-18597.69;;;-139.74;0.00
76496;BME280;65329;52.544;4.662;2023-05-20T03:34:41;-18597.69;;;-139.74;0.00
76496;BME280;65329;52.544;4.662;2023-05-20T03:37:08;-18597.69;;;-139.74;0.00
76496;BME280;65329;52.544;4.662;2023-05-20T03:39:34;-18597.69;;;-139.74;0.00
76496;BME280;65329;52.544;4.662;2023-05-20T03:42:01;-18597.69;;;-139.74;0.00
76496;BME280;65329;52.544;4.662;2023-05-20T03:44:28;-18597.69;;;-139.74;0.00
76496;BME280;65329;52.544;4.662;2023-05-20T03:46:55;-18597.69;;;-139.74;0.00
76496;BME280;65329;52.544;4.662;2023-05-20T03:49:23;-18597.69;;;-139.74;0.00
76496;BME280;65329;52.544;4.662;2023-05-20T03:51:50;-18597.69;;;-139.74;0.00
76496;BME280;65329;52.544;4.662;2023-05-20T03:54:17;-18597.69;;;-139.74;0.00
76496;BME280;65329;52.544;4.662;2023-05-20T03:56:48;-18597.69;;;-139.74;0.00
76496;BME280;65329;52.544;4.662;2023-05-20T03:59:15;-18597.69;;;-139.74;0.00
76496;BME280;65329;52.544;4.662;2023-05-20T04:01:42;-18597.69;;;-139.74;0.00
76496;BME280;65329;52.544;4.662;2023-05-20T04:04:09;-18597.69;;;-139.74;0.00
76496;BME280;65329;52.544;4.662;2023-05-20T04:06:36;-18597.69;;;-139.74;0.00
76496;BME280;65329;52.544;4.662;2023-05-20T04:09:03;-18597.69;;;-139.74;0.00
76496;BME280;65329;52.544;4.662;2023-05-20T04:11:30;-18597.69;;;-139.74;0.00
76496;BME280;65329;52.544;4.662;2023-05-20T04:13:57;-18597.69;;;-139.74;0.00
76496;BME280;65329;52.544;4.662;2023-05-20T04:16:26;-18597.69;;;-139.74;0.00
76496;BME280;65329;52.544;4.662;2023-05-20T04:18:55;-18597.69;;;-139.74;0.00
76496;BME280;65329;52.544;4.662;2023-05-20T04:21:25;-18597.69;;;-139.74;0.00
76496;BME280;65329;52.544;4.662;2023-05-20T04:23:52;-18597.69;;;-139.74;0.00
76496;BME280;65329;52.544;4.662;2023-05-20T04:26:19;-18597.69;;;-139.74;0.00
76496;BME280;65329;52.544;4.662;2023-05-20T04:28:46;-18597.69;;;-139.74;0.00
76496;BME280;65329;52.544;4.662;2023-05-20T04:31:16;-18597.69;;;-139.74;0.00
76496;BME280;65329;52.544;4.662;2023-05-20T04:33:43;-18597.69;;;-139.74;0.00
76496;BME280;65329;52.544;4.662;2023-05-20T04:36:10;-18597.69;;;-139.74;0.00
76496;BME280;65329;52.544;4.662;2023-05-20T04:38:41;-18597.69;;;-139.74;0.00
76496;BME280;65329;52.544;4.662;2023-05-20T04:41:10;-18597.69;;;-139.74;0.00
76496;BME280;65329;52.544;4.662;2023-05-20T04:43:37;-18597.69;;;-139.74;0.00
76496;BME280;65329;52.544;4.662;2023-05-20T04:46:06;-18597.69;;;-139.74;0.00
76496;BME280;65329;52.544;4.662;2023-05-20T04:48:33;-18597.69;;;-139.74;0.00
76496;BME280;65329;52.544;4.662;2023-05-20T04:51:00;-18597.69;;;-139.74;0.00
76496;BME280;65329;52.544;4.662;2023-05-20T04:53:27;80134.78;;;-139.74;0.00
76496;BME280;65329;52.544;4.662;2023-05-20T04:55:56;117940.31;;;-139.74;0.00
76496;BME280;65329;52.544;4.662;2023-05-20T04:58:23;117940.31;;;-139.74;0.00
76496;BME280;65329;52.544;4.662;2023-05-20T05:00:51;117940.31;;;-139.74;0.00
76496;BME280;65329;52.544;4.662;2023-05-20T05:03:18;117940.31;;;-139.74;0.00
76496;BME280;65329;52.544;4.662;2023-05-20T05:05:47;117940.31;;;-139.74;0.00
76496;BME280;65329;52.544;4.662;2023-05-20T05:08:14;117940.31;;;-139.74;0.00
76496;BME280;65329;52.544;4.662;2023-05-20T05:10:46;117940.31;;;-139.74;0.00
76496;BME280;65329;52.544;4.662;2023-05-20T05:13:13;117940.31;;;-139.74;0.00
76496;BME280;65329;52.544;4.662;2023-05-20T05:15:41;117940.31;;;-139.74;0.00
76496;BME280;65329;52.544;4.662;2023-05-20T05:18:08;117940.31;;;-139.74;0.00
76496;BME280;65329;52.544;4.662;2023-05-20T05:20:35;117940.31;;;-139.74;0.00
76496;BME280;65329;52.544;4.662;2023-05-20T05:23:02;117940.31;;;-139.74;0.00
76496;BME280;65329;52.544;4.662;2023-05-20T05:25:29;117940.31;;;-139.74;0.00
76496;BME280;65329;52.544;4.662;2023-05-20T05:27:58;117940.31;;;-139.74;0.00
76496;BME280;65329;52.544;4.662;2023-05-20T05:30:25;117940.31;;;-139.74;0.00
76496;BME280;65329;52.544;4.662;2023-05-20T05:32:53;117940.31;;;-139.74;0.00
76496;BME280;65329;52.544;4.662;2023-05-20T05:35:21;117940.31;;;-139.74;0.00
76496;BME280;65329;52.544;4.662;2023-05-20T05:37:48;117940.31;;;-139.74;0.00
76496;BME280;65329;52.544;4.662;2023-05-20T05:40:15;117940.31;;;-139.74;0.00
76496;BME280;65329;52.544;4.662;2023-05-20T05:42:42;117940.31;;;-139.74;0.00
76496;BME280;65329;52.544;4.662;2023-05-20T05:45:10;117940.31;;;-139.74;0.00
76496;BME280;65329;52.544;4.662;2023-05-20T05:47:36;117940.31;;;-139.74;0.00
76496;BME280;65329;52.544;4.662;2023-05-20T05:50:04;117940.31;;;-139.74;0.00
76496;BME280;65329;52.544;4.662;2023-05-20T05:52:33;117940.31;;;-139.74;0.00
76496;BME280;65329;52.544;4.662;2023-05-20T05:55:02;117940.31;;;-139.74;0.00
76496;BME280;65329;52.544;4.662;2023-05-20T05:57:29;117940.31;;;-139.74;0.00
76496;BME280;65329;52.544;4.662;2023-05-20T05:59:57;117940.31;;;-139.74;0.00
76496;BME280;65329;52.544;4.662;2023-05-20T06:02:25;117940.31;;;-139.74;0.00
76496;BME280;65329;52.544;4.662;2023-05-20T06:04:53;117940.31;;;-139.74;0.00
76496;BME280;65329;52.544;4.662;2023-05-20T06:07:20;117940.31;;;-139.74;0.00
76496;BME280;65329;52.544;4.662;2023-05-20T06:09:47;117940.31;;;-139.74;0.00
76496;BME280;65329;52.544;4.662;2023-05-20T06:12:15;117940.31;;;-139.74;0.00
76496;BME280;65329;52.544;4.662;2023-05-20T06:14:43;117940.31;;;-139.74;0.00
76496;BME280;65329;52.544;4.662;2023-05-20T06:17:10;117940.31;;;-139.74;0.00
76496;BME280;65329;52.544;4.662;2023-05-20T06:19:37;117940.31;;;-139.74;0.00
76496;BME280;65329;52.544;4.662;2023-05-20T06:22:04;96023.22;;;-139.74;0.00
76496;BME280;65329;52.544;4.662;2023-05-20T06:24:33;90365.03;;;-139.74;0.00
76496;BME280;65329;52.544;4.662;2023-05-20T06:27:00;74226.31;;;-139.74;0.00
76496;BME280;65329;52.544;4.662;2023-05-20T06:29:30;69398.59;;;-139.74;0.00
76496;BME280;65329;52.544;4.662;2023-05-20T06:31:58;59760.66;;;-139.74;0.00
76496;BME280;65329;52.544;4.662;2023-05-20T06:34:25;44019.75;;;-139.74;0.00
76496;BME280;65329;52.544;4.662;2023-05-20T06:36:52;-18597.69;;;-139.74;0.00
76496;BME280;65329;52.544;4.662;2023-05-20T06:39:19;-18597.69;;;-139.74;0.00
76496;BME280;65329;52.544;4.662;2023-05-20T06:41:47;-18597.69;;;-139.74;0.00
76496;BME280;65329;52.544;4.662;2023-05-20T06:44:25;-18597.69;;;-139.74;0.00
76496;BME280;65329;52.544;4.662;2023-05-20T06:46:58;-15450.03;;;-139.74;0.00
76496;BME280;65329;52.544;4.662;2023-05-20T06:49:25;-18597.69;;;-139.74;0.00
76496;BME280;65329;52.544;4.662;2023-05-20T06:51:53;-18597.69;;;-139.74;0.00
76496;BME280;65329;52.544;4.662;2023-05-20T06:54:20;-18597.69;;;-139.74;0.00
76496;BME280;65329;52.544;4.662;2023-05-20T06:56:47;25803.53;;;-139.74;0.00
76496;BME280;65329;52.544;4.662;2023-05-20T06:59:14;49154.22;;;-139.74;0.00
76496;BME280;65329;52.544;4.662;2023-05-20T07:01:42;114413.03;;;-139.74;0.00
76496;BME280;65329;52.544;4.662;2023-05-20T07:04:09;114684.06;;;-139.74;0.00
76496;BME280;65329;52.544;4.662;2023-05-20T07:06:36;112516.09;;;-139.74;0.00
76496;BME280;65329;52.544;4.662;2023-05-20T07:09:03;103315.09;;;-139.74;0.00
76496;BME280;65329;52.544;4.662;2023-05-20T07:11:31;100883.00;;;-139.74;0.00
76496;BME280;65329;52.544;4.662;2023-05-20T07:13:58;88475.13;;;-139.74;0.00
76496;BME280;65329;52.544;4.662;2023-05-20T07:16:28;86051.97;;;-139.74;0.00
76496;BME280;65329;52.544;4.662;2023-05-20T07:18:55;81747.69;;;-139.74;0.00
76496;BME280;65329;52.544;4.662;2023-05-20T07:21:23;79059.88;;;-139.74;0.00
76496;BME280;65329;52.544;4.662;2023-05-20T07:23:58;77448.03;;;-139.74;0.00
76496;BME280;65329;52.544;4.662;2023-05-20T07:26:25;74763.09;;;-139.74;0.00
76496;BME280;65329;52.544;4.662;2023-05-20T07:28:54;79597.28;;;-139.74;0.00
76496;BME280;65329;52.544;4.662;2023-05-20T07:31:21;77985.25;;;-139.74;0.00
76496;BME280;65329;52.544;4.662;2023-05-20T07:33:49;77716.63;;;-139.74;0.00
76496;BME280;65329;52.544;4.662;2023-05-20T07:36:16;59493.28;;;-139.74;0.00
76496;BME280;65329;52.544;4.662;2023-05-20T07:38:47;75299.94;;;-139.74;0.00
76496;BME280;65329;52.544;4.662;2023-05-20T07:41:29;96293.06;;;-139.74;0.00
76496;BME280;65329;52.544;4.662;2023-05-20T07:43:57;103315.09;;;-139.74;0.00
76496;BME280;65329;52.544;4.662;2023-05-20T07:46:24;110078.53;;;-139.74;0.00
76496;BME280;65329;52.544;4.662;2023-05-20T07:48:51;94134.88;;;-139.74;0.00
76496;BME280;65329;52.544;4.662;2023-05-20T07:51:18;82823.34;;;-139.74;0.00
76496;BME280;65329;52.544;4.662;2023-05-20T07:53:46;67254.84;;;-139.74;0.00
76496;BME280;65329;52.544;4.662;2023-05-20T07:56:16;58691.22;;;-139.74;0.00
76496;BME280;65329;52.544;4.662;2023-05-20T07:58:55;56286.03;;;-139.74;0.00
76496;BME280;65329;52.544;4.662;2023-05-20T08:01:24;53081.38;;;-139.74;0.00
76496;BME280;65329;52.544;4.662;2023-05-20T08:03:53;52814.44;;;-139.74;0.00
76496;BME280;65329;52.544;4.662;2023-05-20T08:06:22;38958.50;;;-139.74;0.00
76496;BME280;65329;52.544;4.662;2023-05-20T08:08:56;28333.19;;;-139.74;0.00
76496;BME280;65329;52.544;4.662;2023-05-20T08:11:32;20395.50;;;-139.74;0.00
76496;BME280;65329;52.544;4.662;2023-05-20T08:13:59;40820.88;;;-139.74;0.00
76496;BME280;65329;52.544;4.662;2023-05-20T08:16:32;59493.28;;;-139.74;0.00
76496;BME280;65329;52.544;4.662;2023-05-20T08:18:59;56553.22;;;-139.74;0.00
76496;BME280;65329;52.544;4.662;2023-05-20T08:21:26;40554.78;;;-139.74;0.00
76496;BME280;65329;52.544;4.662;2023-05-20T08:23:53;55484.63;;;-139.74;0.00
76496;BME280;65329;52.544;4.662;2023-05-20T08:26:20;27537.44;;;-139.74;0.00
76496;BME280;65329;52.544;4.662;2023-05-20T08:28:49;21148.41;;;-139.74;0.00
76496;BME280;65329;52.544;4.662;2023-05-20T08:31:18;32845.41;;;-139.74;0.00
76496;BME280;65329;52.544;4.662;2023-05-20T08:33:45;48812.53;;;-139.74;0.00
76496;BME280;65329;52.544;4.662;2023-05-20T08:36:12;57354.84;;;-139.74;0.00
76496;BME280;65329;52.544;4.662;2023-05-20T08:38:39;69398.59;;;-139.74;0.00
76496;BME280;65329;52.544;4.662;2023-05-20T08:41:06;66451.22;;;-139.74;0.00
76496;BME280;65329;52.544;4.662;2023-05-20T08:43:35;50412.81;;;-139.74;0.00
76496;BME280;65329;52.544;4.662;2023-05-20T08:46:04;43749.28;;;-139.74;0.00
76496;BME280;65329;52.544;4.662;2023-05-20T08:48:34;38692.50;;;-139.74;0.00
76496;BME280;65329;52.544;4.662;2023-05-20T08:51:02;32845.41;;;-139.74;0.00
76496;BME280;65329;52.544;4.662;2023-05-20T08:53:29;18265.81;;;-139.74;0.00
76496;BME280;65329;52.544;4.662;2023-05-20T08:55:59;9544.19;;;-139.74;0.00
76496;BME280;65329;52.544;4.662;2023-05-20T08:58:29;10336.25;;;-139.74;0.00
76496;BME280;65329;52.544;4.662;2023-05-20T09:00:56;3262.91;;;-139.74;0.00
76496;BME280;65329;52.544;4.662;2023-05-20T09:03:24;-2280.38;;;-139.74;0.00
76496;BME280;65329;52.544;4.662;2023-05-20T09:05:52;-4303.09;;;-139.74;0.00
76496;BME280;65329;52.544;4.662;2023-05-20T09:08:23;-13006.72;;;-139.74;0.00
76496;BME280;65329;52.544;4.662;2023-05-20T09:10:53;-12418.19;;;-139.74;0.00
76496;BME280;65329;52.544;4.662;2023-05-20T09:13:20;-17174.97;;;-139.74;0.00
76496;BME280;65329;52.544;4.662;2023-05-20T09:15:49;-18597.69;;;-139.74;0.00
76496;BME280;65329;52.544;4.662;2023-05-20T09:18:16;-18597.69;;;-139.74;0.00
76496;BME280;65329;52.544;4.662;2023-05-20T09:20:46;-18597.69;;;-139.74;0.00
76496;BME280;65329;52.544;4.662;2023-05-20T09:23:13;-17441.22;;;-139.74;0.00
76496;BME280;65329;52.544;4.662;2023-05-20T09:25:40;-18597.69;;;-139.74;0.00
76496;BME280;65329;52.544;4.662;2023-05-20T09:28:07;-18597.69;;;-139.74;0.00
76496;BME280;65329;52.544;4.662;2023-05-20T09:30:34;-18597.69;;;-139.74;0.00
76496;BME280;65329;52.544;4.662;2023-05-20T09:33:03;-18597.69;;;-139.74;0.00
76496;BME280;65329;52.544;4.662;2023-05-20T09:35:34;-18597.69;;;-139.74;0.00
76496;BME280;65329;52.544;4.662;2023-05-20T09:38:05;-18597.69;;;-139.74;0.00
76496;BME280;65329;52.544;4.662;2023-05-20T09:40:35;-18597.69;;;-139.74;0.00
76496;BME280;65329;52.544;4.662;2023-05-20T09:43:07;-18597.69;;;-139.74;0.00
76496;BME280;65329;52.544;4.662;2023-05-20T09:45:34;-18597.69;;;-139.74;0.00
76496;BME280;65329;52.544;4.662;2023-05-20T09:48:02;-18597.69;;;-139.74;0.00
76496;BME280;65329;52.544;4.662;2023-05-20T09:50:30;-18597.69;;;-139.74;0.00
76496;BME280;65329;52.544;4.662;2023-05-20T09:53:01;-18597.69;;;-139.74;0.00
76496;BME280;65329;52.544;4.662;2023-05-20T09:55:29;-18597.69;;;-139.74;0.00
76496;BME280;65329;52.544;4.662;2023-05-20T09:57:59;-18597.69;;;-139.74;0.00
76496;BME280;65329;52.544;4.662;2023-05-20T10:00:27;-18597.69;;;-139.74;0.00
76496;BME280;65329;52.544;4.662;2023-05-20T10:02:55;-18597.69;;;-139.74;0.00
76496;BME280;65329;52.544;4.662;2023-05-20T10:05:36;-18597.69;;;-139.74;0.00
76496;BME280;65329;52.544;4.662;2023-05-20T10:08:29;-18597.69;;;-139.74;0.00
76496;BME280;65329;52.544;4.662;2023-05-20T10:11:13;-18597.69;;;-139.74;0.00
76496;BME280;65329;52.544;4.662;2023-05-20T10:17:09;-18597.69;;;-139.74;0.00
76496;BME280;65329;52.544;4.662;2023-05-20T10:19:39;-18597.69;;;-139.74;0.00
76496;BME280;65329;52.544;4.662;2023-05-20T10:22:07;-18597.69;;;-139.74;0.00
76496;BME280;65329;52.544;4.662;2023-05-20T10:24:42;-18597.69;;;-139.74;0.00
76496;BME280;65329;52.544;4.662;2023-05-20T10:27:13;-18597.69;;;-139.74;0.00
76496;BME280;65329;52.544;4.662;2023-05-20T10:29:54;-18597.69;;;-139.74;0.00
76496;BME280;65329;52.544;4.662;2023-05-20T10:32:30;-18597.69;;;-139.74;0.00
76496;BME280;65329;52.544;4.662;2023-05-20T10:35:02;-18597.69;;;-139.74;0.00
76496;BME280;65329;52.544;4.662;2023-05-20T10:38:06;-18597.69;;;-139.74;0.00
76496;BME280;65329;52.544;4.662;2023-05-20T10:40:33;-18597.69;;;-139.74;0.00
76496;BME280;65329;52.544;4.662;2023-05-20T10:43:13;-18597.69;;;-139.74;0.00
76496;BME280;65329;52.544;4.662;2023-05-20T10:45:54;-18597.69;;;-139.74;0.00
76496;BME280;65329;52.544;4.662;2023-05-20T10:48:30;-18597.69;;;-139.74;0.00
76496;BME280;65329;52.544;4.662;2023-05-20T10:51:01;-18597.69;;;-139.74;0.00
76496;BME280;65329;52.544;4.662;2023-05-20T10:53:44;-18597.69;;;-139.74;0.00
76496;BME280;65329;52.544;4.662;2023-05-20T10:56:19;-18597.69;;;-139.74;0.00
76496;BME280;65329;52.544;4.662;2023-05-20T10:58:47;-18597.69;;;-139.74;0.00
76496;BME280;65329;52.544;4.662;2023-05-20T11:01:15;-18597.69;;;-139.74;0.00
76496;BME280;65329;52.544;4.662;2023-05-20T11:03:43;-18597.69;;;-139.74;0.00
76496;BME280;65329;52.544;4.662;2023-05-20T11:06:28;-18597.69;;;-139.74;0.00
76496;BME280;65329;52.544;4.662;2023-05-20T11:09:03;-18597.69;;;-139.74;0.00
76496;BME280;65329;52.544;4.662;2023-05-20T11:11:32;-18597.69;;;-139.74;0.00
76496;BME280;65329;52.544;4.662;2023-05-20T11:13:59;-18597.69;;;-139.74;0.00
76496;BME280;65329;52.544;4.662;2023-05-20T11:16:26;-18597.69;;;-139.74;0.00
76496;BME280;65329;52.544;4.662;2023-05-20T11:18:53;-18597.69;;;-139.74;0.00
76496;BME280;65329;52.544;4.662;2023-05-20T11:21:20;-18597.69;;;-139.74;0.00
76496;BME280;65329;52.544;4.662;2023-05-20T11:23:50;-18597.69;;;-139.74;0.00
76496;BME280;65329;52.544;4.662;2023-05-20T11:26:19;-18597.69;;;-139.74;0.00
76496;BME280;65329;52.544;4.662;2023-05-20T11:28:46;-18597.69;;;-139.74;0.00
76496;BME280;65329;52.544;4.662;2023-05-20T11:31:13;-18597.69;;;-139.74;0.00
76496;BME280;65329;52.544;4.662;2023-05-20T11:33:41;-18597.69;;;-139.74;0.00
76496;BME280;65329;52.544;4.662;2023-05-20T11:36:09;-18597.69;;;-139.74;0.00
76496;BME280;65329;52.544;4.662;2023-05-20T11:38:53;-18597.69;;;-139.74;0.00
76496;BME280;65329;52.544;4.662;2023-05-20T11:41:23;-18597.69;;;-139.74;0.00
76496;BME280;65329;52.544;4.662;2023-05-20T11:43:59;-18597.69;;;-139.74;0.00
76496;BME280;65329;52.544;4.662;2023-05-20T11:46:27;-18597.69;;;-139.74;0.00
76496;BME280;65329;52.544;4.662;2023-05-20T11:48:55;-18597.69;;;-139.74;0.00
76496;BME280;65329;52.544;4.662;2023-05-20T11:51:26;-18597.69;;;-139.74;0.00
76496;BME280;65329;52.544;4.662;2023-05-20T11:53:59;-18597.69;;;-139.74;0.00
76496;BME280;65329;52.544;4.662;2023-05-20T11:56:36;-18597.69;;;-139.74;0.00
76496;BME280;65329;52.544;4.662;2023-05-20T11:59:05;-18597.69;;;-139.74;0.00
76496;BME280;65329;52.544;4.662;2023-05-20T12:01:38;-18597.69;;;-139.74;0.00
76496;BME280;65329;52.544;4.662;2023-05-20T12:04:09;-18597.69;;;-139.74;0.00
76496;BME280;65329;52.544;4.662;2023-05-20T12:06:36;-18597.69;;;-139.74;0.00
76496;BME280;65329;52.544;4.662;2023-05-20T12:09:07;-18597.69;;;-139.74;0.00
76496;BME280;65329;52.544;4.662;2023-05-20T12:11:35;-18597.69;;;-139.74;0.00
76496;BME280;65329;52.544;4.662;2023-05-20T12:14:03;-18597.69;;;-139.74;0.00
76496;BME280;65329;52.544;4.662;2023-05-20T12:16:31;-18597.69;;;-139.74;0.00
76496;BME280;65329;52.544;4.662;2023-05-20T12:18:59;-18597.69;;;-139.74;0.00
76496;BME280;65329;52.544;4.662;2023-05-20T12:21:27;-18597.69;;;-139.74;0.00
76496;BME280;65329;52.544;4.662;2023-05-20T12:23:54;-18597.69;;;-139.74;0.00
76496;BME280;65329;52.544;4.662;2023-05-20T12:26:25;-18597.69;;;-139.74;0.00
76496;BME280;65329;52.544;4.662;2023-05-20T12:28:56;-18597.69;;;-139.74;0.00
76496;BME280;65329;52.544;4.662;2023-05-20T12:31:24;-18597.69;;;-139.74;0.00
76496;BME280;65329;52.544;4.662;2023-05-20T12:33:51;-18597.69;;;-139.74;0.00
76496;BME280;65329;52.544;4.662;2023-05-20T12:36:19;-18597.69;;;-139.74;0.00
76496;BME280;65329;52.544;4.662;2023-05-20T12:38:46;-18597.69;;;-139.74;0.00
76496;BME280;65329;52.544;4.662;2023-05-20T12:41:13;-18597.69;;;-139.74;0.00
76496;BME280;65329;52.544;4.662;2023-05-20T12:43:40;-18597.69;;;-139.74;0.00
76496;BME280;65329;52.544;4.662;2023-05-20T12:46:07;-18597.69;;;-139.74;0.00
76496;BME280;65329;52.544;4.662;2023-05-20T12:48:34;-18597.69;;;-139.74;0.00
76496;BME280;65329;52.544;4.662;2023-05-20T12:51:02;-18597.69;;;-139.74;0.00
76496;BME280;65329;52.544;4.662;2023-05-20T12:53:29;-18597.69;;;-139.74;0.00
76496;BME280;65329;52.544;4.662;2023-05-20T12:55:57;-18597.69;;;-139.74;0.00